createdAt,value
2018-10-07T00:01:47.976Z,100204.00
2018-10-07T00:04:16.806Z,100200.00
2018-10-07T00:06:45.626Z,100212.00
2018-10-07T00:09:14.495Z,100212.00
2018-10-07T00:11:43.931Z,100217.00
2018-10-07T00:14:12.841Z,100211.00
2018-10-07T00:16:41.695Z,100205.00
2018-10-07T00:19:10.569Z,100196.00
2018-10-07T00:21:39.423Z,100199.00
2018-10-07T00:24:14.698Z,100196.00
2018-10-07T00:26:43.580Z,100199.00
2018-10-07T00:29:12.600Z,100197.00
2018-10-07T00:31:46.871Z,100192.00
2018-10-07T00:34:15.747Z,100192.00
2018-10-07T00:36:44.678Z,100196.00
2018-10-07T00:39:13.534Z,100189.00
2018-10-07T00:41:42.350Z,100194.00
2018-10-07T00:44:11.216Z,100188.00
2018-10-07T00:46:40.023Z,100186.00
2018-10-07T00:49:08.896Z,100190.00
2018-10-07T00:51:37.922Z,100185.00
2018-10-07T00:54:06.973Z,100184.00
2018-10-07T00:56:35.813Z,100190.00
2018-10-07T00:59:04.654Z,100185.00
2018-10-07T01:01:33.498Z,100187.00
2018-10-07T01:04:02.319Z,100191.00
2018-10-07T01:06:31.211Z,100183.00
2018-10-07T01:09:00.089Z,100188.00
2018-10-07T01:11:28.917Z,100190.00
2018-10-07T01:13:57.863Z,100178.00
2018-10-07T01:16:26.699Z,100186.00
2018-10-07T01:18:55.530Z,100180.00
2018-10-07T01:21:24.397Z,100175.00
2018-10-07T01:23:54.123Z,100179.00
2018-10-07T01:26:23.003Z,100182.00
2018-10-07T01:28:51.855Z,100177.00
2018-10-07T01:31:20.775Z,100179.00
2018-10-07T01:33:49.639Z,100182.00
2018-10-07T01:36:18.751Z,100181.00
2018-10-07T01:38:47.613Z,100180.00
2018-10-07T01:41:16.464Z,100184.00
2018-10-07T01:43:45.410Z,100182.00
2018-10-07T01:46:14.778Z,100166.00
2018-10-07T01:48:43.676Z,100186.00
2018-10-07T01:51:12.580Z,100186.00
2018-10-07T01:53:41.431Z,100184.00
2018-10-07T01:56:10.284Z,100178.00
2018-10-07T01:58:39.199Z,100184.00
2018-10-07T02:01:08.121Z,100187.00
2018-10-07T02:03:37.004Z,100181.00
2018-10-07T02:06:05.851Z,100186.00
2018-10-07T02:08:34.716Z,100191.00
2018-10-07T02:11:03.576Z,100195.00
2018-10-07T02:13:32.410Z,100198.00
2018-10-07T02:16:01.113Z,100200.00
2018-10-07T02:18:29.969Z,100204.00
2018-10-07T02:20:58.851Z,100207.00
2018-10-07T02:23:27.756Z,100208.00
2018-10-07T02:25:56.697Z,100209.00
2018-10-07T02:28:25.572Z,100209.00
2018-10-07T02:30:54.460Z,100223.00
2018-10-07T02:33:23.318Z,100216.00
2018-10-07T02:35:52.248Z,100217.00
2018-10-07T02:38:21.100Z,100211.00
2018-10-07T02:40:49.967Z,100214.00
2018-10-07T02:43:18.811Z,100220.00
2018-10-07T02:45:47.670Z,100230.00
2018-10-07T02:48:16.571Z,100227.00
2018-10-07T02:50:45.439Z,100220.00
2018-10-07T02:53:14.387Z,100226.00
2018-10-07T02:55:43.296Z,100233.00
2018-10-07T02:58:12.256Z,100237.00
2018-10-07T03:00:41.136Z,100233.00
2018-10-07T03:03:10.027Z,100230.00
2018-10-07T03:05:38.898Z,100232.00
2018-10-07T03:08:07.779Z,100240.00
2018-10-07T03:10:36.736Z,100229.00
2018-10-07T03:13:05.628Z,100242.00
2018-10-07T03:15:34.488Z,100238.00
2018-10-07T03:18:03.387Z,100238.00
2018-10-07T03:20:32.250Z,100244.00
2018-10-07T03:23:01.111Z,100240.00
2018-10-07T03:25:30.018Z,100240.00
2018-10-07T03:27:58.841Z,100241.00
2018-10-07T03:30:27.674Z,100239.00
2018-10-07T03:32:56.531Z,100237.00
2018-10-07T03:35:25.373Z,100245.00
2018-10-07T03:37:54.216Z,100239.00
2018-10-07T03:40:23.064Z,100245.00
2018-10-07T03:42:51.904Z,100254.00
2018-10-07T03:45:20.768Z,100242.00
2018-10-07T03:47:49.606Z,100248.00
2018-10-07T03:50:18.423Z,100255.00
2018-10-07T03:52:47.295Z,100261.00
2018-10-07T03:55:16.135Z,100274.00
2018-10-07T03:57:45.052Z,100283.00
2018-10-07T04:00:13.909Z,100283.00
2018-10-07T04:02:42.836Z,100287.00
2018-10-07T04:05:11.705Z,100294.00
2018-10-07T04:07:40.556Z,100301.00
2018-10-07T04:10:09.447Z,100302.00
2018-10-07T04:12:38.267Z,100303.00
2018-10-07T04:15:07.162Z,100295.00
2018-10-07T04:17:36.105Z,100310.00
2018-10-07T04:20:05.062Z,100315.00
2018-10-07T04:22:34.005Z,100310.00
2018-10-07T04:25:02.907Z,100304.00
2018-10-07T04:27:31.748Z,100303.00
2018-10-07T04:30:00.592Z,100310.00
2018-10-07T04:32:29.466Z,100304.00
2018-10-07T04:34:58.320Z,100311.00
2018-10-07T04:37:27.149Z,100313.00
2018-10-07T04:39:56.075Z,100308.00
2018-10-07T04:42:24.929Z,100313.00
2018-10-07T04:44:53.788Z,100313.00
2018-10-07T04:47:22.708Z,100315.00
2018-10-07T04:49:51.632Z,100318.00
2018-10-07T04:52:20.540Z,100316.00
2018-10-07T04:54:49.383Z,100318.00
2018-10-07T04:57:18.220Z,100311.00
2018-10-07T04:59:47.087Z,100313.00
2018-10-07T05:02:15.931Z,100324.00
2018-10-07T05:04:44.801Z,100336.00
2018-10-07T05:07:13.666Z,100338.00
2018-10-07T05:09:42.530Z,100346.00
2018-10-07T05:12:11.821Z,100346.00
2018-10-07T05:14:40.679Z,100346.00
2018-10-07T05:17:10.316Z,100350.00
2018-10-07T05:19:39.179Z,100357.00
2018-10-07T05:22:07.999Z,100354.00
2018-10-07T05:24:36.855Z,100360.00
2018-10-07T05:27:05.832Z,100371.00
2018-10-07T05:29:34.705Z,100375.00
2018-10-07T05:32:03.576Z,100383.00
2018-10-07T05:34:32.447Z,100390.00
2018-10-07T05:37:01.291Z,100398.00
2018-10-07T05:39:30.147Z,100395.00
2018-10-07T05:41:59.028Z,100396.00
2018-10-07T05:44:27.927Z,100402.00
2018-10-07T05:46:56.776Z,100394.00
2018-10-07T05:49:25.623Z,100401.00
2018-10-07T05:51:54.496Z,100421.00
2018-10-07T05:54:23.368Z,100429.00
2018-10-07T05:56:52.223Z,100425.00
2018-10-07T05:59:21.046Z,100426.00
2018-10-07T06:01:50.557Z,100444.00
2018-10-07T06:04:37.629Z,100454.00
2018-10-07T06:07:06.476Z,100452.00
2018-10-07T06:09:36.520Z,100461.00
2018-10-07T06:12:05.390Z,100467.00
2018-10-07T06:14:51.821Z,100469.00
2018-10-07T06:17:20.740Z,100469.00
2018-10-07T06:19:49.632Z,100468.00
2018-10-07T06:22:18.478Z,100480.00
2018-10-07T06:24:47.368Z,100482.00
2018-10-07T06:27:16.271Z,100478.00
2018-10-07T06:29:45.125Z,100484.00
2018-10-07T06:32:13.987Z,100502.00
2018-10-07T06:34:42.867Z,100521.00
2018-10-07T06:37:11.728Z,100529.00
2018-10-07T06:39:40.661Z,100548.00
2018-10-07T06:42:09.463Z,100537.00
2018-10-07T06:44:38.351Z,100553.00
2018-10-07T06:47:07.318Z,100562.00
2018-10-07T06:49:36.152Z,100565.00
2018-10-07T06:52:05.027Z,100572.00
2018-10-07T06:54:33.843Z,100576.00
2018-10-07T06:57:02.695Z,100589.00
2018-10-07T06:59:31.587Z,100590.00
2018-10-07T07:02:06.876Z,100603.00
2018-10-07T07:04:35.815Z,100591.00
2018-10-07T07:07:04.696Z,100595.00
2018-10-07T07:09:33.585Z,100604.00
2018-10-07T07:12:02.426Z,100610.00
2018-10-07T07:14:31.310Z,100621.00
2018-10-07T07:17:00.139Z,100624.00
2018-10-07T07:19:28.968Z,100616.00
2018-10-07T07:21:57.838Z,100632.00
2018-10-07T07:24:26.724Z,100637.00
2018-10-07T07:26:55.553Z,100643.00
2018-10-07T07:29:24.374Z,100651.00
2018-10-07T07:31:53.629Z,100665.00
2018-10-07T07:34:22.520Z,100666.00
2018-10-07T07:36:51.438Z,100677.00
2018-10-07T07:39:20.250Z,100673.00
2018-10-07T07:41:49.194Z,100677.00
2018-10-07T07:44:18.071Z,100692.00
2018-10-07T07:46:46.987Z,100700.00
2018-10-07T07:49:15.885Z,100708.00
2018-10-07T07:51:44.749Z,100707.00
2018-10-07T07:54:13.673Z,100710.00
2018-10-07T07:56:42.577Z,100719.00
2018-10-07T07:59:11.602Z,100736.00
2018-10-07T08:01:40.463Z,100740.00
2018-10-07T08:04:09.365Z,100740.00
2018-10-07T08:06:39.136Z,100760.00
2018-10-07T08:09:09.624Z,100753.00
2018-10-07T08:11:38.472Z,100755.00
2018-10-07T08:14:07.625Z,100763.00
2018-10-07T08:16:36.483Z,100771.00
2018-10-07T08:19:05.364Z,100782.00
2018-10-07T08:21:34.226Z,100776.00
2018-10-07T08:24:03.129Z,100792.00
2018-10-07T08:26:31.985Z,100788.00
2018-10-07T08:29:00.866Z,100786.00
2018-10-07T08:31:29.714Z,100805.00
2018-10-07T08:33:58.592Z,100805.00
2018-10-07T08:36:27.402Z,100808.00
2018-10-07T08:38:56.248Z,100815.00
2018-10-07T08:41:25.079Z,100816.00
2018-10-07T08:43:53.909Z,100829.00
2018-10-07T08:46:22.767Z,100827.00
2018-10-07T08:48:51.629Z,100834.00
2018-10-07T08:51:20.518Z,100846.00
2018-10-07T08:53:49.393Z,100853.00
2018-10-07T08:56:18.339Z,100869.00
2018-10-07T08:58:47.195Z,100883.00
2018-10-07T09:01:16.054Z,100881.00
2018-10-07T09:03:44.913Z,100888.00
2018-10-07T09:06:13.796Z,100896.00
2018-10-07T09:08:42.738Z,100897.00
2018-10-07T09:11:11.590Z,100908.00
2018-10-07T09:13:40.443Z,100915.00
2018-10-07T09:16:09.324Z,100924.00
2018-10-07T09:18:38.138Z,100911.00
2018-10-07T09:21:07.087Z,100918.00
2018-10-07T09:23:35.825Z,100922.00
2018-10-07T09:26:04.663Z,100923.00
2018-10-07T09:28:33.573Z,100939.00
2018-10-07T09:31:02.444Z,100949.00
2018-10-07T09:33:31.689Z,100962.00
2018-10-07T09:36:00.585Z,100967.00
2018-10-07T09:38:29.470Z,100973.00
2018-10-07T09:40:58.327Z,100973.00
2018-10-07T09:43:27.193Z,100975.00
2018-10-07T09:45:58.000Z,100979.00
2018-10-07T09:48:26.865Z,100977.00
2018-10-07T09:50:55.723Z,100985.00
2018-10-07T09:53:24.673Z,100994.00
2018-10-07T09:55:53.588Z,100993.00
2018-10-07T09:58:22.444Z,101004.00
2018-10-07T10:00:51.245Z,101003.00
2018-10-07T10:05:26.687Z,101012.00
2018-10-07T10:07:55.544Z,101027.00
2018-10-07T10:10:24.370Z,101021.00
2018-10-07T10:12:53.175Z,101041.00
2018-10-07T10:15:22.028Z,101042.00
2018-10-07T10:17:56.088Z,101041.00
2018-10-07T10:20:27.206Z,101053.00
2018-10-07T10:23:07.998Z,101059.00
2018-10-07T10:26:18.810Z,101062.00
2018-10-07T10:29:26.209Z,101070.00
2018-10-07T10:32:10.057Z,101069.00
2018-10-07T10:34:48.044Z,101071.00
2018-10-07T10:37:24.355Z,101073.00
2018-10-07T10:39:59.037Z,101079.00
2018-10-07T10:42:41.873Z,101100.00
2018-10-07T10:45:21.088Z,101112.00
2018-10-07T10:47:50.779Z,101109.00
2018-10-07T10:52:37.335Z,101119.00
2018-10-07T10:55:17.676Z,101125.00
2018-10-07T10:57:50.355Z,101120.00
2018-10-07T11:00:25.938Z,101118.00
2018-10-07T11:05:09.661Z,101113.00
2018-10-07T11:10:14.227Z,101122.00
2018-10-07T11:12:54.134Z,101128.00
2018-10-07T11:15:31.477Z,101138.00
2018-10-07T11:19:19.308Z,101137.00
2018-10-07T11:21:59.015Z,101144.00
2018-10-07T11:24:38.888Z,101145.00
2018-10-07T11:27:33.661Z,101140.00
2018-10-07T11:32:15.012Z,101145.00
2018-10-07T11:35:24.347Z,101152.00
2018-10-07T11:38:08.799Z,101155.00
2018-10-07T11:41:02.556Z,101160.00
2018-10-07T11:44:15.084Z,101164.00
2018-10-07T11:47:00.943Z,101164.00
2018-10-07T11:49:41.663Z,101166.00
2018-10-07T11:52:36.889Z,101177.00
2018-10-07T11:55:06.752Z,101180.00
2018-10-07T11:57:35.621Z,101178.00
2018-10-07T12:00:04.540Z,101183.00
2018-10-07T12:02:33.379Z,101183.00
2018-10-07T12:05:02.184Z,101178.00
2018-10-07T12:07:31.983Z,101189.00
2018-10-07T12:10:00.868Z,101195.00
2018-10-07T12:12:29.669Z,101198.00
2018-10-07T12:14:58.489Z,101195.00
2018-10-07T12:17:27.307Z,101198.00
2018-10-07T12:19:56.181Z,101192.00
2018-10-07T12:22:24.991Z,101200.00
2018-10-07T12:24:53.783Z,101204.00
2018-10-07T12:27:22.628Z,101199.00
2018-10-07T12:29:51.459Z,101199.00
2018-10-07T12:32:20.387Z,101207.00
2018-10-07T12:34:49.284Z,101207.00
2018-10-07T12:37:18.106Z,101207.00
2018-10-07T12:39:46.947Z,101212.00
2018-10-07T12:42:15.739Z,101202.00
2018-10-07T12:44:44.601Z,101216.00
2018-10-07T12:47:13.406Z,101209.00
2018-10-07T12:49:42.294Z,101220.00
2018-10-07T12:52:11.154Z,101226.00
2018-10-07T12:54:40.020Z,101231.00
2018-10-07T12:57:08.919Z,101235.00
2018-10-07T12:59:37.728Z,101230.00
2018-10-07T13:02:06.605Z,101231.00
2018-10-07T13:04:35.477Z,101233.00
2018-10-07T13:07:04.321Z,101235.00
2018-10-07T13:09:33.174Z,101242.00
2018-10-07T13:12:01.999Z,101245.00
2018-10-07T13:14:30.799Z,101254.00
2018-10-07T13:16:59.686Z,101249.00
2018-10-07T13:19:28.475Z,101260.00
2018-10-07T13:21:57.325Z,101258.00
2018-10-07T13:24:26.150Z,101269.00
2018-10-07T13:26:55.047Z,101269.00
2018-10-07T13:29:23.931Z,101276.00
2018-10-07T13:31:52.783Z,101272.00
2018-10-07T13:34:21.771Z,101283.00
2018-10-07T13:36:50.622Z,101276.00
2018-10-07T13:39:19.468Z,101285.00
2018-10-07T13:41:48.352Z,101290.00
2018-10-07T13:44:17.237Z,101302.00
2018-10-07T13:46:46.097Z,101293.00
2018-10-07T13:49:15.053Z,101303.00
2018-10-07T13:51:43.944Z,101303.00
2018-10-07T13:54:12.818Z,101302.00
2018-10-07T13:56:41.693Z,101306.00
2018-10-07T13:59:10.556Z,101312.00
2018-10-07T14:01:39.452Z,101322.00
2018-10-07T14:04:08.331Z,101321.00
2018-10-07T14:06:37.179Z,101328.00
2018-10-07T14:09:07.848Z,101334.00
2018-10-07T14:11:36.739Z,101331.00
2018-10-07T14:14:05.648Z,101335.00
2018-10-07T14:16:34.508Z,101335.00
2018-10-07T14:19:03.381Z,101343.00
2018-10-07T14:21:32.226Z,101338.00
2018-10-07T14:24:01.167Z,101349.00
2018-10-07T14:26:30.186Z,101348.00
2018-10-07T14:28:59.066Z,101355.00
2018-10-07T14:31:27.927Z,101352.00
2018-10-07T14:33:56.844Z,101357.00
2018-10-07T14:36:25.699Z,101361.00
2018-10-07T14:38:54.564Z,101362.00
2018-10-07T14:41:23.453Z,101361.00
2018-10-07T14:43:52.343Z,101367.00
2018-10-07T14:46:21.179Z,101370.00
2018-10-07T14:48:50.043Z,101375.00
2018-10-07T14:51:18.924Z,101373.00
2018-10-07T14:53:47.790Z,101378.00
2018-10-07T14:56:16.600Z,101388.00
2018-10-07T14:58:45.426Z,101401.00
2018-10-07T15:01:14.343Z,101399.00
2018-10-07T15:03:43.249Z,101402.00
2018-10-07T15:06:12.105Z,101406.00
2018-10-07T15:08:41.160Z,101407.00
2018-10-07T15:11:10.078Z,101406.00
2018-10-07T15:13:39.085Z,101402.00
2018-10-07T15:16:07.943Z,101410.00
2018-10-07T15:18:36.899Z,101409.00
2018-10-07T15:21:05.784Z,101414.00
2018-10-07T15:23:34.757Z,101413.00
2018-10-07T15:26:03.572Z,101413.00
2018-10-07T15:28:32.467Z,101414.00
2018-10-07T15:31:01.291Z,101418.00
2018-10-07T15:33:30.110Z,101416.00
2018-10-07T15:35:58.982Z,101414.00
2018-10-07T15:38:27.846Z,101420.00
2018-10-07T15:40:56.779Z,101418.00
2018-10-07T15:43:25.640Z,101417.00
2018-10-07T15:45:54.509Z,101424.00
2018-10-07T15:48:23.380Z,101426.00
2018-10-07T15:50:52.249Z,101422.00
2018-10-07T15:53:21.147Z,101417.00
2018-10-07T15:55:50.033Z,101421.00
2018-10-07T15:58:18.867Z,101437.00
2018-10-07T16:00:47.749Z,101439.00
2018-10-07T16:03:16.596Z,101442.00
2018-10-07T16:05:45.483Z,101437.00
2018-10-07T16:08:14.686Z,101446.00
2018-10-07T16:10:43.598Z,101452.00
2018-10-07T16:13:12.459Z,101457.00
2018-10-07T16:15:41.364Z,101465.00
2018-10-07T16:18:10.321Z,101461.00
2018-10-07T16:20:39.145Z,101462.00
2018-10-07T16:23:08.019Z,101468.00
2018-10-07T16:25:36.859Z,101472.00
2018-10-07T16:28:05.728Z,101481.00
2018-10-07T16:30:34.591Z,101475.00
2018-10-07T16:33:03.439Z,101479.00
2018-10-07T16:35:32.308Z,101490.00
2018-10-07T16:38:01.259Z,101494.00
2018-10-07T16:40:30.098Z,101490.00
2018-10-07T16:42:58.979Z,101488.00
2018-10-07T16:45:28.006Z,101480.00
2018-10-07T16:47:56.913Z,101497.00
2018-10-07T16:50:25.750Z,101494.00
2018-10-07T16:52:54.658Z,101506.00
2018-10-07T16:55:23.572Z,101502.00
2018-10-07T16:57:52.492Z,101512.00
2018-10-07T17:00:21.388Z,101513.00
2018-10-07T17:02:50.226Z,101519.00
2018-10-07T17:05:19.107Z,101521.00
2018-10-07T17:07:47.976Z,101538.00
2018-10-07T17:10:16.952Z,101541.00
2018-10-07T17:12:45.913Z,101537.00
2018-10-07T17:15:14.757Z,101545.00
2018-10-07T17:17:43.602Z,101549.00
2018-10-07T17:20:12.514Z,101557.00
2018-10-07T17:22:41.527Z,101558.00
2018-10-07T17:25:10.426Z,101563.00
2018-10-07T17:27:39.391Z,101560.00
2018-10-07T17:30:08.285Z,101570.00
2018-10-07T17:32:37.160Z,101571.00
2018-10-07T17:35:06.040Z,101569.00
2018-10-07T17:37:34.900Z,101578.00
2018-10-07T17:40:03.768Z,101576.00
2018-10-07T17:42:32.741Z,101580.00
2018-10-07T17:45:01.726Z,101585.00
2018-10-07T17:47:30.659Z,101584.00
2018-10-07T17:49:59.566Z,101583.00
2018-10-07T17:52:28.481Z,101587.00
2018-10-07T17:54:57.466Z,101593.00
2018-10-07T17:57:26.324Z,101598.00
2018-10-07T17:59:55.193Z,101598.00
2018-10-07T18:02:24.059Z,101599.00
2018-10-07T18:04:52.991Z,101606.00
2018-10-07T18:07:21.922Z,101612.00
2018-10-07T18:09:50.827Z,101617.00
2018-10-07T18:12:19.741Z,101620.00
2018-10-07T18:14:48.796Z,101621.00
2018-10-07T18:17:17.715Z,101620.00
2018-10-07T18:19:46.589Z,101622.00
2018-10-07T18:22:15.429Z,101626.00
2018-10-07T18:24:44.332Z,101623.00
2018-10-07T18:27:13.237Z,101635.00
2018-10-07T18:29:42.217Z,101630.00
2018-10-07T18:32:11.114Z,101635.00
2018-10-07T18:34:40.403Z,101645.00
2018-10-07T18:37:09.269Z,101637.00
2018-10-07T18:39:38.231Z,101647.00
2018-10-07T18:42:07.108Z,101647.00
2018-10-07T18:44:36.027Z,101640.00
2018-10-07T18:47:05.027Z,101643.00
2018-10-07T18:49:34.666Z,101647.00
2018-10-07T18:52:03.568Z,101655.00
2018-10-07T18:54:32.674Z,101657.00
2018-10-07T18:57:02.892Z,101655.00
2018-10-07T18:59:32.767Z,101653.00
2018-10-07T19:02:01.758Z,101664.00
2018-10-07T19:04:30.647Z,101656.00
2018-10-07T19:06:59.619Z,101665.00
2018-10-07T19:09:28.511Z,101666.00
2018-10-07T19:11:57.528Z,101665.00
2018-10-07T19:14:26.444Z,101669.00
2018-10-07T19:16:55.328Z,101670.00
2018-10-07T19:19:24.286Z,101667.00
2018-10-07T19:21:53.186Z,101665.00
2018-10-07T19:24:22.127Z,101661.00
2018-10-07T19:26:51.048Z,101671.00
2018-10-07T19:29:25.402Z,101663.00
2018-10-07T19:31:54.344Z,101662.00
2018-10-07T19:34:23.241Z,101662.00
2018-10-07T19:36:52.312Z,101668.00
2018-10-07T19:39:21.065Z,101678.00
2018-10-07T19:41:50.161Z,101672.00
2018-10-07T19:44:19.029Z,101675.00
2018-10-07T19:46:47.987Z,101671.00
2018-10-07T19:49:16.847Z,101671.00
2018-10-07T19:51:45.724Z,101627.00
2018-10-07T19:54:14.588Z,101679.00
2018-10-07T19:56:43.486Z,101678.00
2018-10-07T19:59:15.860Z,101675.00
2018-10-07T20:01:44.715Z,101678.00
2018-10-07T20:04:13.616Z,101683.00
2018-10-07T20:06:42.461Z,101685.00
2018-10-07T20:09:12.016Z,101682.00
2018-10-07T20:11:41.070Z,101683.00
2018-10-07T20:14:10.007Z,101691.00
2018-10-07T20:16:38.945Z,101691.00
2018-10-07T20:19:07.948Z,101683.00
2018-10-07T20:21:36.764Z,101694.00
2018-10-07T20:24:05.597Z,101689.00
2018-10-07T20:26:34.410Z,101695.00
2018-10-07T20:29:03.264Z,101708.00
2018-10-07T20:31:32.097Z,101709.00
2018-10-07T20:34:00.996Z,101702.00
2018-10-07T20:36:29.788Z,101701.00
2018-10-07T20:38:58.602Z,101697.00
2018-10-07T20:41:27.416Z,101704.00
2018-10-07T20:43:56.259Z,101716.00
2018-10-07T20:46:25.154Z,101715.00
2018-10-07T20:48:54.129Z,101718.00
2018-10-07T20:51:22.951Z,101724.00
2018-10-07T20:53:51.774Z,101722.00
2018-10-07T20:56:21.304Z,101731.00
2018-10-07T20:58:50.182Z,101726.00
2018-10-07T21:01:18.999Z,101721.00
2018-10-07T21:03:47.844Z,101719.00
2018-10-07T21:06:16.747Z,101723.00
2018-10-07T21:08:45.581Z,101725.00
2018-10-07T21:11:14.412Z,101718.00
2018-10-07T21:13:43.316Z,101728.00
2018-10-07T21:16:12.267Z,101721.00
2018-10-07T21:18:41.160Z,101731.00
2018-10-07T21:21:09.986Z,101731.00
2018-10-07T21:23:38.848Z,101722.00
2018-10-07T21:26:07.987Z,101725.00
2018-10-07T21:28:36.852Z,101729.00
2018-10-07T21:31:05.716Z,101730.00
2018-10-07T21:33:34.591Z,101725.00
2018-10-07T21:36:03.427Z,101722.00
2018-10-07T21:38:32.292Z,101722.00
2018-10-07T21:41:01.115Z,101730.00
2018-10-07T21:43:29.950Z,101727.00
2018-10-07T21:45:58.804Z,101734.00
2018-10-07T21:48:27.671Z,101728.00
2018-10-07T21:50:56.495Z,101733.00
2018-10-07T21:53:25.362Z,101730.00
2018-10-07T21:55:54.212Z,101731.00
2018-10-07T21:58:23.052Z,101741.00
2018-10-07T22:00:51.887Z,101723.00
2018-10-07T22:03:20.726Z,101734.00
2018-10-07T22:05:49.587Z,101726.00
2018-10-07T22:08:18.402Z,101729.00
2018-10-07T22:10:47.195Z,101715.00
2018-10-07T22:13:16.076Z,101712.00
2018-10-07T22:15:45.087Z,101707.00
2018-10-07T22:18:13.895Z,101712.00
2018-10-07T22:20:42.722Z,101704.00
2018-10-07T22:23:11.560Z,101698.00
2018-10-07T22:25:40.440Z,101697.00
2018-10-07T22:28:09.284Z,101690.00
2018-10-07T22:30:38.090Z,101690.00
2018-10-07T22:33:07.120Z,101687.00
2018-10-07T22:35:35.936Z,101698.00
2018-10-07T22:38:04.886Z,101694.00
2018-10-07T22:40:33.732Z,101689.00
2018-10-07T22:43:02.554Z,101681.00
2018-10-07T22:45:31.385Z,101674.00
2018-10-07T22:48:00.231Z,101672.00
2018-10-07T22:50:29.072Z,101684.00
2018-10-07T22:52:57.960Z,101699.00
2018-10-07T22:55:26.812Z,101688.00
2018-10-07T22:57:55.622Z,101691.00
2018-10-07T23:00:24.530Z,101687.00
2018-10-07T23:02:53.401Z,101693.00
2018-10-07T23:05:22.316Z,101697.00
2018-10-07T23:07:51.224Z,101699.00
2018-10-07T23:10:20.092Z,101689.00
2018-10-07T23:12:48.919Z,101690.00
2018-10-07T23:15:18.350Z,101698.00
2018-10-07T23:17:47.200Z,101700.00
2018-10-07T23:20:16.113Z,101705.00
2018-10-07T23:22:44.967Z,101700.00
2018-10-07T23:25:13.851Z,101708.00
2018-10-07T23:27:42.705Z,101703.00
2018-10-07T23:30:11.526Z,101716.00
2018-10-07T23:32:42.154Z,101725.00
2018-10-07T23:35:10.987Z,101715.00
2018-10-07T23:37:39.832Z,101725.00
2018-10-07T23:40:09.383Z,101726.00
2018-10-07T23:42:38.695Z,101722.00
2018-10-07T23:45:07.565Z,101725.00
2018-10-07T23:47:36.414Z,101725.00
2018-10-07T23:50:05.339Z,101716.00
2018-10-07T23:52:34.206Z,101725.00
2018-10-07T23:55:03.196Z,101725.00
2018-10-07T23:57:32.052Z,101731.00
